Portada
METAR-TAF:

METAR-TAF

Aeroports :

Honiara, Guadalcanal, Illes Salomó

latitud: 09-25S, longitud: 160-03E, altitud: 8 m

Observació

L'informe es va fer fa 46 minuts, a les 07:00 UTC
Temperatura
Pressió

METAR: AGGH 240700Z METAR

Hora: 18:46 (07:46 UTC)

Pronòstic

L'informe es va fer fa 14 hores i 19 minuts, a les 17:27 UTC
Pronòstic vàlid del 23 a les 18 UTC al 24 a les 18 UTC
Vent 12 kt del Est/Sud-Est
Visibilitat 10 km o més
Núvols disperses a una alçada de 1600 ft
Cel ennuvolat a una alçada de 10000 ft
xàfecs de pluja
Probabilitat 40%
entre IN i TE UTC
Visibilitat: 1008 m
Cel ennuvolat a una alçada de 1500 ft
Escasses núvols a una alçada de 1600 ft, Cumulonimbus.

TAF: AGGH 231727Z 2318/2418 11012KT 9999 -SHRA SCT016 BKN100 PROB40 INTER 2318/2406 5000 TSSH BKN015 FEW016CB T 23 26 28 30 Q 1009 1011 1011 1008

Observacions i pronòstics meteorològics de més de 4000 aeroports (METAR i TAF).

Les estacions disponibles són els punts grocs i vermells al mapa.

Posi el ratolí al punt desitjat per veure el nom de l'estació.

Feu clic per veure les observacions i els pronòstics meteorològics.

Per canviar el mapa: feu clic els botons verds amb una creu de color negre per apropar; al botó verd amb un guió per allunyar la imatge; o en les fletxes verdes per a mapes adjacents.


METAR-TAF: